Time;durP1;ratioP1;P1;durP2;ratioP2;P2;SDS_P1;SDS_P2;PMS_P1;PMS_P2;Temp;Humidity;BMP_temperature;BMP_pressure;BME280_temperature;BME280_humidity;BME280_pressure;Samples;Min_cycle;Max_cycle;Signal;HPM_P1;HPM_P2
2023/05/24 00:03:45;;;;;;;2.30;1.23;;;;;;;;;;20883078;28;20215;-83
2023/05/24 00:13:48;;;;;;;3.67;1.20;;;18.40;99.90;;;;;;20895784;28;20225;-81
2023/05/24 00:23:50;;;;;;;2.27;0.90;;;;;;;;;;20920547;28;20271;-83
2023/05/24 00:33:52;;;;;;;3.60;1.53;;;;;;;;;;20919344;28;20239;-82
2023/05/24 00:43:54;;;;;;;2.73;1.10;;;;;;;;;;20954846;28;20221;-83
2023/05/24 00:53:55;;;;;;;3.40;0.90;;;;;;;;;;20968123;28;20233;-83
2023/05/24 01:03:58;;;;;;;1.87;1.00;;;17.70;99.90;;;;;;20953441;28;20266;-82
2023/05/24 01:14:19;;;;;;;1.77;0.97;;;;;;;;;;20932569;28;20842;-81
2023/05/24 01:24:21;;;;;;;2.67;1.00;;;;;;;;;;20872472;28;20212;-80
2023/05/24 01:34:25;;;;;;;1.90;1.17;;;;;;;;;;20991597;28;20243;-80
2023/05/24 01:44:39;;;;;;;6.23;1.20;;;;;;;;;;20965411;28;20213;-81
2023/05/24 01:54:44;;;;;;;2.37;1.30;;;;;;;;;;20874923;28;20238;-81
2023/05/24 02:04:45;;;;;;;1.23;0.83;;;;;;;;;;20922054;28;20243;-81
2023/05/24 02:14:49;;;;;;;2.33;1.00;;;;;;;;;;20991597;28;20698;-80
2023/05/24 02:24:52;;;;;;;3.60;1.20;;;;;;;;;;20955033;28;20234;-82
2023/05/24 02:34:53;;;;;;;5.43;1.40;;;;;;;;;;20946050;28;20240;-82
2023/05/24 02:44:55;;;;;;;2.20;1.10;;;;;;;;;;20916448;28;20287;-82
2023/05/24 02:54:57;;;;;;;2.20;1.23;;;;;;;;;;20926766;28;20568;-82
2023/05/24 03:04:59;;;;;;;2.50;0.93;;;;;;;;;;20928282;28;20229;-83
2023/05/24 03:15:01;;;;;;;1.93;0.80;;;;;;;;;;20889940;28;20241;-82
2023/05/24 03:25:07;;;;;;;2.47;1.00;;;;;;;;;;20916214;28;20298;-82
2023/05/24 03:35:10;;;;;;;3.57;1.07;;;;;;;;;;20902815;28;20217;-81
2023/05/24 03:45:13;;;;;;;1.43;0.70;;;;;;;;;;20916397;28;20686;-81
2023/05/24 03:55:15;;;;;;;1.77;0.97;;;;;;;;;;20949513;28;20229;-81
2023/05/24 04:05:17;;;;;;;1.93;0.80;;;;;;;;;;20931749;28;20209;-81
2023/05/24 04:15:20;;;;;;;2.83;1.07;;;;;;;;;;21005894;28;20224;-81
2023/05/24 04:25:22;;;;;;;2.23;0.93;;;;;;;;;;20965982;28;20602;-81
2023/05/24 04:35:24;;;;;;;3.87;1.10;;;;;;;;;;20955572;28;20298;-83
2023/05/24 04:45:26;;;;;;;4.53;1.27;;;;;;;;;;20875441;28;20267;-82
2023/05/24 04:55:28;;;;;;;2.13;0.97;;;;;;;;;;20870335;28;20262;-82
2023/05/24 05:05:30;;;;;;;2.80;1.07;;;;;;;;;;20913306;28;20275;-81
2023/05/24 05:15:31;;;;;;;2.03;0.80;;;;;;;;;;20913266;28;20234;-83
2023/05/24 05:25:34;;;;;;;6.07;1.00;;;;;;;;;;20914573;28;20233;-83
2023/05/24 05:35:36;;;;;;;3.17;0.73;;;;;;;;;;20871514;28;20288;-83
2023/05/24 05:45:38;;;;;;;2.37;0.77;;;;;;;;;;20913014;28;20210;-82
2023/05/24 05:55:40;;;;;;;1.77;0.80;;;;;;;;;;20873118;28;20238;-82
2023/05/24 06:05:42;;;;;;;1.63;0.73;;;;;;;;;;20858236;28;20213;-82
2023/05/24 06:15:44;;;;;;;4.13;0.83;;;;;;;;;;20896566;28;20307;-82
2023/05/24 06:25:46;;;;;;;3.50;0.90;;;;;;;;;;20891527;28;20221;-81
2023/05/24 06:35:48;;;;;;;3.00;1.20;;;;;;;;;;20889025;28;20241;-81
2023/05/24 06:45:49;;;;;;;1.73;0.70;;;;;;;;;;20872097;28;20214;-81
2023/05/24 06:55:51;;;;;;;3.00;0.90;;;;;;;;;;20903699;28;20241;-83
2023/05/24 07:05:53;;;;;;;2.23;0.90;;;;;;;;;;20911887;28;20217;-82
2023/05/24 07:15:55;;;;;;;2.50;0.70;;;;;;;;;;20943085;28;20554;-82
2023/05/24 07:25:56;;;;;;;2.83;1.20;;;;;;;;;;20967503;28;20213;-82
2023/05/24 07:35:58;;;;;;;1.87;0.77;;;;;;;;;;20983963;28;20221;-81
2023/05/24 07:46:00;;;;;;;1.60;0.70;;;;;;;;;;20994161;28;20552;-81
2023/05/24 07:56:02;;;;;;;3.33;0.90;;;;;;;;;;21000799;28;20286;-81
2023/05/24 08:06:03;;;;;;;2.33;0.93;;;;;;;;;;20963060;28;20197;-81
2023/05/24 08:16:05;;;;;;;1.60;0.60;;;;;;;;;;20979733;28;20225;-82
2023/05/24 08:26:07;;;;;;;1.50;0.57;;;;;;;;;;20997016;28;20181;-81
2023/05/24 08:36:09;;;;;;;2.43;0.80;;;;;;;;;;20961625;28;20217;-81
2023/05/24 08:46:12;;;;;;;4.00;0.93;;;18.20;99.90;;;;;;20990868;28;20193;-82
2023/05/24 08:56:17;;;;;;;2.27;0.90;;;18.00;99.90;;;;;;20976515;28;20291;-81
2023/05/24 09:06:19;;;;;;;1.90;0.70;;;;;;;;;;20992293;28;20217;-82
2023/05/24 09:16:21;;;;;;;1.17;0.53;;;;;;;;;;20957855;28;20229;-81
2023/05/24 09:26:24;;;;;;;3.07;0.70;;;;;;;;;;20967496;28;20592;-82
2023/05/24 09:36:28;;;;;;;2.43;0.80;;;19.10;99.90;;;;;;20962632;28;20785;-82
2023/05/24 09:46:37;;;;;;;1.93;0.70;;;19.50;99.90;;;;;;20956657;28;20688;-82
2023/05/24 09:56:41;;;;;;;6.13;1.20;;;19.80;99.90;;;;;;20956780;28;20255;-82
2023/05/24 10:06:46;;;;;;;4.67;0.83;;;;;;;;;;20994186;28;20247;-81
2023/05/24 10:16:48;;;;;;;3.43;1.00;;;;;;;;;;20957263;28;20238;-81
2023/05/24 10:26:51;;;;;;;1.90;0.90;;;18.90;99.90;;;;;;20957280;28;20244;-82
2023/05/24 10:36:53;;;;;;;2.37;1.07;;;19.70;99.90;;;;;;20955910;28;20206;-82
2023/05/24 10:47:10;;;;;;;3.17;1.10;;;;;;;;;;20970764;28;20215;-82
2023/05/24 10:57:12;;;;;;;1.83;0.87;;;;;;;;;;20971471;28;20198;-84
2023/05/24 11:07:15;;;;;;;3.23;0.83;;;20.60;99.90;;;;;;20973478;28;20233;-82
2023/05/24 11:17:21;;;;;;;1.67;0.70;;;20.80;99.90;;;;;;20968834;28;20216;-83
2023/05/24 11:27:23;;;;;;;3.30;1.13;;;;;;;;;;21002030;28;20253;-82
2023/05/24 11:37:25;;;;;;;3.70;1.53;;;;;;;;;;20967912;28;20353;-84
2023/05/24 11:47:28;;;;;;;1.70;0.80;;;;;;;;;;20983060;28;20256;-83
2023/05/24 11:57:41;;;;;;;2.43;0.80;;;21.20;96.60;;;;;;20981844;28;20224;-82
2023/05/24 12:07:47;;;;;;;2.67;0.90;;;;;;;;;;20980825;28;20231;-83
2023/05/24 12:17:50;;;;;;;1.43;0.70;;;;;;;;;;20946160;28;20277;-82
2023/05/24 12:27:52;;;;;;;1.77;0.90;;;;;;;;;;20931466;28;20224;-83
2023/05/24 12:38:00;;;;;;;2.07;0.70;;;;;;;;;;21005311;28;20224;-83
2023/05/24 12:48:03;;;;;;;2.83;1.07;;;;;;;;;;20980894;28;20228;-83
2023/05/24 12:58:08;;;;;;;2.27;0.83;;;;;;;;;;20961851;28;20254;-82
2023/05/24 13:08:10;;;;;;;1.37;0.70;;;;;;;;;;20992847;28;20313;-83
2023/05/24 13:18:12;;;;;;;2.63;0.73;;;;;;;;;;20894127;28;20269;-83
2023/05/24 13:28:13;;;;;;;1.80;0.70;;;;;;;;;;20866419;28;20864;-81
2023/05/24 13:38:15;;;;;;;2.47;0.90;;;;;;;;;;20888439;28;20226;-83
2023/05/24 13:48:17;;;;;;;2.23;0.77;;;;;;;;;;20873786;28;20281;-82
2023/05/24 13:58:19;;;;;;;1.83;0.83;;;;;;;;;;20872154;28;20926;-82
2023/05/24 14:08:21;;;;;;;1.77;1.00;;;;;;;;;;20905645;28;20213;-82
2023/05/24 14:18:23;;;;;;;2.23;1.00;;;;;;;;;;20914983;28;20740;-82
2023/05/24 14:28:24;;;;;;;1.47;0.60;;;;;;;;;;20854206;28;20245;-83
2023/05/24 14:38:26;;;;;;;2.00;0.95;;;;;;;;;;20861301;28;20741;-82
2023/05/24 14:48:28;;;;;;;1.83;0.80;;;;;;;;;;20901104;28;20230;-82
2023/05/24 14:58:31;;;;;;;1.58;0.60;;;;;;;;;;20920192;28;20217;-82
2023/05/24 15:08:34;;;;;;;2.13;0.90;;;;;;;;;;20886910;28;20628;-82
2023/05/24 15:18:35;;;;;;;3.13;0.90;;;;;;;;;;20920235;28;20635;-81
2023/05/24 15:28:37;;;;;;;2.17;1.00;;;;;;;;;;20890479;28;20266;-82
2023/05/24 15:38:39;;;;;;;1.83;0.85;;;;;;;;;;20918927;28;20258;-82
2023/05/24 15:48:45;;;;;;;2.13;0.77;;;;;;;;;;20944506;28;20250;-82
2023/05/24 15:58:47;;;;;;;2.75;1.15;;;;;;;;;;20964101;28;20252;-80
2023/05/24 16:08:52;;;;;;;3.03;1.03;;;;;;;;;;20939035;28;20271;-81
2023/05/24 16:18:55;;;;;;;2.70;0.90;;;;;;;;;;20911418;28;20233;-81
2023/05/24 16:28:58;;;;;;;3.33;1.20;;;21.70;98.80;;;;;;20929442;28;20706;-81
2023/05/24 16:39:00;;;;;;;2.90;1.27;;;;;;;;;;20912392;28;20217;-81
2023/05/24 16:49:02;;;;;;;3.00;1.10;;;;;;;;;;20910532;28;20252;-81
2023/05/24 16:59:04;;;;;;;1.80;1.00;;;;;;;;;;20918370;28;20233;-81
2023/05/24 17:09:06;;;;;;;1.53;0.77;;;;;;;;;;20913531;28;20225;-81
2023/05/24 17:19:10;;;;;;;1.87;0.97;;;;;;;;;;20834351;28;20256;-81
2023/05/24 17:29:12;;;;;;;1.63;0.80;;;;;;;;;;20938663;28;20235;-81
2023/05/24 17:39:18;;;;;;;1.30;0.60;;;;;;;;;;20908957;28;20958;-80
2023/05/24 17:49:20;;;;;;;2.63;0.90;;;;;;;;;;20906117;28;20767;-81
2023/05/24 17:59:22;;;;;;;2.30;0.97;;;;;;;;;;20869857;28;20615;-80
2023/05/24 18:09:26;;;;;;;1.37;0.70;;;;;;;;;;20851343;28;20779;-80
2023/05/24 18:19:27;;;;;;;1.70;0.90;;;;;;;;;;20910347;28;20262;-81
2023/05/24 18:29:30;;;;;;;2.97;0.90;;;;;;;;;;20903546;28;20245;-81
2023/05/24 18:39:31;;;;;;;2.67;1.23;;;;;;;;;;20878181;28;20757;-82
2023/05/24 18:49:33;;;;;;;2.87;0.90;;;;;;;;;;20884108;28;20228;-81
2023/05/24 18:59:35;;;;;;;1.47;0.97;;;19.80;99.90;;;;;;20890571;28;20249;-81
2023/05/24 19:09:37;;;;;;;3.23;1.10;;;;;;;;;;20925689;28;20278;-81
2023/05/24 19:19:38;;;;;;;2.30;0.83;;;;;;;;;;20883995;28;20236;-81
2023/05/24 19:41:15;;;;;;;2.23;1.03;;;;;;;;;;20918449;28;20257;-82
2023/05/24 19:51:18;;;;;;;4.57;1.10;;;;;;;;;;20882400;28;20746;-82
2023/05/24 20:01:20;;;;;;;2.93;0.90;;;;;;;;;;20894798;28;20224;-82
2023/05/24 20:11:22;;;;;;;3.83;1.03;;;;;;;;;;20866023;28;20235;-83
2023/05/24 20:21:24;;;;;;;2.93;1.00;;;;;;;;;;20894863;28;20222;-83
2023/05/24 20:31:26;;;;;;;1.97;1.00;;;;;;;;;;20871663;28;20235;-83
2023/05/24 20:41:29;;;;;;;2.53;0.97;;;;;;;;;;20894000;28;20211;-83
2023/05/24 20:51:31;;;;;;;1.90;0.80;;;;;;;;;;20890911;28;20239;-84
2023/05/24 21:01:32;;;;;;;2.50;0.80;;;;;;;;;;20854221;28;20218;-83
2023/05/24 21:11:34;;;;;;;1.73;0.70;;;;;;;;;;20855421;28;20288;-84
2023/05/24 21:21:36;;;;;;;2.53;0.90;;;;;;;;;;20869296;28;20573;-84
2023/05/24 21:31:38;;;;;;;2.37;0.80;;;18.10;99.90;;;;;;20885825;28;20264;-83
2023/05/24 21:41:40;;;;;;;3.40;0.93;;;;;;;;;;20872087;28;20237;-83
2023/05/24 21:51:42;;;;;;;4.10;1.00;;;;;;;;;;20853091;28;20239;-83
2023/05/24 22:01:44;;;;;;;4.23;0.90;;;;;;;;;;20871582;28;20218;-82
2023/05/24 22:11:45;;;;;;;2.57;0.90;;;;;;;;;;20870516;28;20739;-82
2023/05/24 22:21:49;;;;;;;4.00;1.00;;;;;;;;;;20876926;28;20270;-83
2023/05/24 22:31:50;;;;;;;2.83;1.30;;;;;;;;;;20887430;28;20229;-83
2023/05/24 22:41:52;;;;;;;3.47;1.23;;;;;;;;;;20845308;28;20215;-83
2023/05/24 22:51:55;;;;;;;2.33;0.90;;;;;;;;;;20822554;28;20276;-82
2023/05/24 23:01:57;;;;;;;3.83;1.10;;;;;;;;;;20797446;28;20222;-82
2023/05/24 23:12:00;;;;;;;2.13;0.90;;;;;;;;;;20803438;28;20983;-83
2023/05/24 23:22:02;;;;;;;3.67;0.80;;;;;;;;;;20786905;28;20254;-82
2023/05/24 23:32:05;;;;;;;3.30;0.90;;;16.80;99.90;;;;;;20801002;28;20276;-82
2023/05/24 23:42:06;;;;;;;2.83;1.00;;;;;;;;;;20785598;28;20219;-82
2023/05/24 23:52:09;;;;;;;3.90;1.17;;;;;;;;;;20827886;28;20700;-81
